METAR AND TAF INFORMATION
METAR FOR YBCS
ADDS - METARS form results

(2312 UTC 22 May 2018)
Data provider http://aviationweather.gov/adds/metars/
 
METAR text: YBCS 222300Z 15015KT 9999 FEW025 24/15 Q1018 NOSIG
Conditions at: YBCS (CAIRNS AIRPORT , AU) observed 2300 UTC 22 May 2018
Temperature: 24.0°C (75°F)
Dewpoint: 15.0°C (59°F) [RH = 57%]
Pressure (altimeter): 30.06 inches Hg (1018.0 mb)
Winds: from the SSE (150 degrees) at 17 MPH (15 knots; 7.8 m/s)
Visibility: 6 or more miles (10+ km)
Ceiling: at least 12,000 feet AGL
Clouds: few clouds at 2500 feet AGL
Weather: no significant weather observed at this time

METAR text: YBCS 222230Z 16014KT 9999 FEW025 23/15 Q1018 NOSIG
Conditions at: YBCS (CAIRNS AIRPORT , AU) observed 2230 UTC 22 May 2018
Temperature: 23.0°C (73°F)
Dewpoint: 15.0°C (59°F) [RH = 61%]
Pressure (altimeter): 30.06 inches Hg (1018.0 mb)
Winds: from the SSE (160 degrees) at 16 MPH (14 knots; 7.3 m/s)
Visibility: 6 or more miles (10+ km)
Ceiling: at least 12,000 feet AGL
Clouds: few clouds at 2500 feet AGL
Weather: no significant weather observed at this time

Forecast for: YBCS (CAIRNS AIRPORT , AU)
Text: TAF YBCS 221707Z 2218/2318 16012KT 9999 FEW025 BKN100
Forecast period: 1800 UTC 22 May 2018 to 0000 UTC 23 May 2018
Forecast type: FROM: standard forecast or significant change
Winds: from the SSE (160 degrees) at 14 MPH (12 knots; 6.2 m/s)
Visibility: 6 or more miles (10+ km)
Ceiling: 10000 feet AGL
Clouds: few clouds at 2500 feet AGL
broken clouds at 10000 feet AGL
Weather: no significant weather forecast for this period
Forecast for: YBCS (CAIRNS AIRPORT , AU)
Text: TAF YBCS 221707Z 2218/2318 16012KT 9999 FEW025 BKN100
Forecast period: 1800 UTC 22 May 2018 to 0000 UTC 23 May 2018
Forecast type: FROM: standard forecast or significant change
Winds: from the SSE (160 degrees) at 14 MPH (12 knots; 6.2 m/s)
Visibility: 6 or more miles (10+ km)
Ceiling: 10000 feet AGL
Clouds: few clouds at 2500 feet AGL
broken clouds at 10000 feet AGL
Weather: no significant weather forecast for this period
Forecast for: YBCS (CAIRNS AIRPORT , AU)
Text: TAF YBCS 221707Z 2218/2318 16012KT 9999 FEW025 BKN100
Forecast period: 0000 to 0900 UTC 23 May 2018
Forecast type: FROM: standard forecast or significant change
Winds: from the SE (130 degrees) at 20 MPH (17 knots; 8.8 m/s)
gusting to 31 MPH (27 knots; 14.0 m/s)
Visibility: 6 or more miles (10+ km)
Clouds: few clouds at 3000 feet AGL
scattered clouds at 4500 feet AGL
Weather: no significant weather forecast for this period
Forecast for: YBCS (CAIRNS AIRPORT , AU)
Text: TAF YBCS 221707Z 2218/2318 16012KT 9999 FEW025 BKN100
Forecast period: 0000 to 0900 UTC 23 May 2018
Forecast type: FROM: standard forecast or significant change
Winds: from the SE (130 degrees) at 20 MPH (17 knots; 8.8 m/s)
gusting to 31 MPH (27 knots; 14.0 m/s)
Visibility: 6 or more miles (10+ km)
Clouds: few clouds at 3000 feet AGL
scattered clouds at 4500 feet AGL
Weather: no significant weather forecast for this period
Forecast for: YBCS (CAIRNS AIRPORT , AU)
Text: TAF YBCS 221707Z 2218/2318 16012KT 9999 FEW025 BKN100
Forecast period: 0900 to 1800 UTC 23 May 2018
Forecast type: FROM: standard forecast or significant change
Winds: from the SSE (160 degrees) at 12 MPH (10 knots; 5.2 m/s)
Visibility: 6 or more miles (10+ km)
Clouds: few clouds at 2500 feet AGL
scattered clouds at 4500 feet AGL
Weather: no significant weather forecast for this period
Forecast for: YBCS (CAIRNS AIRPORT , AU)
Text: TAF YBCS 221707Z 2218/2318 16012KT 9999 FEW025 BKN100
Forecast period: 0900 to 1800 UTC 23 May 2018
Forecast type: FROM: standard forecast or significant change
Winds: from the SSE (160 degrees) at 12 MPH (10 knots; 5.2 m/s)
Visibility: 6 or more miles (10+ km)
Clouds: few clouds at 2500 feet AGL
scattered clouds at 4500 feet AGL
Weather: no significant weather forecast for this period

 AIRPORT MAP

 RUNWAY INFORMATION
Runway 12 Runway length 3035 ft Runway width 60 ft
Runway elevation 9 ft Runway displaced threshold 0 ft Runway heading 126
Runway 30 Runway length 3035 ft Runway width 60 ft
Runway elevation 6 ft Runway displaced threshold 0 ft Runway heading 306
Runway 15 Runway length 10489 ft Runway width 148 ft
Runway elevation 9 ft Runway displaced threshold 0 ft Runway heading 156
Runway 33 Runway length 10489 ft Runway width 148 ft
Runway elevation 7 ft Runway displaced threshold 0 ft Runway heading 336

 AIRPORT FREQUENCIES
Type A/D Name APP/DEP Frequency 118.4 MHZ
Type ATIS Name ATIS Frequency 113 MHZ
Type CLD Name CLNC DEL Frequency 121.7 MHZ
Type GND Name GND Frequency 121.7 MHZ
Type TWR Name TWR Frequency 124.9 MHZ

 AIRPORT NEAR NAVIGATION AIDS
Type VOR-DME Name Cairns Frequency 113000 KHZ
Type NDB Name Cairns Frequency 364 KHZ



Powered by Virtual Airlines Manager [v2.6.2]